createdAt,value
2023-05-09T00:00:07.980Z,53.07
2023-05-09T00:01:07.993Z,59.95
2023-05-09T00:02:07.998Z,54.40
2023-05-09T00:03:08.068Z,53.08
2023-05-09T00:04:08.023Z,51.26
2023-05-09T00:05:07.948Z,55.91
2023-05-09T00:06:08.193Z,56.57
2023-05-09T00:07:07.930Z,56.28
2023-05-09T00:08:07.930Z,53.73
2023-05-09T00:09:07.928Z,56.42
2023-05-09T00:10:08.009Z,51.79
2023-05-09T00:11:07.905Z,53.94
2023-05-09T00:12:07.913Z,54.09
2023-05-09T00:13:07.937Z,53.80
2023-05-09T00:14:07.880Z,52.87
2023-05-09T00:15:07.872Z,54.59
2023-05-09T00:16:07.875Z,53.28
2023-05-09T00:17:07.855Z,58.01
2023-05-09T00:18:07.849Z,54.52
2023-05-09T00:19:07.866Z,50.32
2023-05-09T00:20:07.831Z,48.07
2023-05-09T00:23:07.966Z,53.19
2023-05-09T00:24:09.107Z,58.61
2023-05-09T00:25:09.028Z,56.85
2023-05-09T00:26:09.119Z,50.78
2023-05-09T00:27:09.024Z,58.06
2023-05-09T00:28:09.015Z,50.68
2023-05-09T00:29:08.999Z,60.28
2023-05-09T00:30:09.019Z,56.13
2023-05-09T00:31:09.001Z,50.60
2023-05-09T00:32:09.042Z,52.63
2023-05-09T00:33:09.045Z,59.79
2023-05-09T00:34:08.967Z,50.21
2023-05-09T00:35:08.964Z,50.31
2023-05-09T00:36:08.992Z,55.40
2023-05-09T00:37:08.952Z,56.93
2023-05-09T00:38:08.955Z,52.68
2023-05-09T00:39:08.929Z,51.62
2023-05-09T00:40:08.916Z,50.33
2023-05-09T00:41:08.921Z,54.94
2023-05-09T00:42:09.008Z,54.91
2023-05-09T00:43:08.907Z,56.55
2023-05-09T00:44:08.910Z,54.09
2023-05-09T00:45:08.882Z,58.90
2023-05-09T00:46:08.902Z,60.15
2023-05-09T00:47:08.901Z,51.98
2023-05-09T00:48:08.863Z,57.70
2023-05-09T00:49:08.868Z,53.42
2023-05-09T00:50:08.854Z,50.42
2023-05-09T00:51:08.833Z,55.52
2023-05-09T00:52:08.828Z,49.50
2023-05-09T00:53:08.820Z,57.10
2023-05-09T00:54:09.340Z,54.88
2023-05-09T00:55:09.799Z,58.59
2023-05-09T00:56:08.791Z,56.87
2023-05-09T00:57:08.788Z,55.94
2023-05-09T00:58:08.886Z,52.28
2023-05-09T00:59:08.775Z,56.22
2023-05-09T01:00:08.762Z,52.82
2023-05-09T01:01:08.823Z,51.93
2023-05-09T01:02:08.752Z,61.89
2023-05-09T01:03:08.840Z,50.12
2023-05-09T01:04:08.741Z,56.01
2023-05-09T01:05:08.726Z,56.84
2023-05-09T01:06:08.744Z,50.53
2023-05-09T01:07:08.717Z,54.79
2023-05-09T01:08:08.707Z,51.86
2023-05-09T01:09:08.718Z,58.39
2023-05-09T01:10:08.691Z,54.06
2023-05-09T01:11:08.756Z,57.38
2023-05-09T01:12:08.671Z,51.20
2023-05-09T01:13:08.737Z,50.48
2023-05-09T01:14:08.755Z,49.89
2023-05-09T01:15:08.650Z,56.44
2023-05-09T01:16:08.767Z,53.19
2023-05-09T01:17:08.627Z,58.71
2023-05-09T01:18:08.710Z,54.76
2023-05-09T01:19:08.616Z,51.13
2023-05-09T01:20:08.620Z,54.07
2023-05-09T01:21:08.607Z,49.21
2023-05-09T01:22:08.592Z,49.30
2023-05-09T01:23:08.582Z,52.22
2023-05-09T01:24:09.582Z,56.53
2023-05-09T01:25:08.575Z,51.05
2023-05-09T01:26:08.577Z,53.97
2023-05-09T01:27:08.548Z,49.16
2023-05-09T01:28:08.546Z,55.85
2023-05-09T01:29:08.536Z,56.91
2023-05-09T01:30:09.513Z,50.14
2023-05-09T01:31:08.555Z,54.27
2023-05-09T01:32:09.407Z,51.50
2023-05-09T01:33:08.572Z,55.11
2023-05-09T01:34:08.591Z,51.79
2023-05-09T01:35:08.500Z,53.65
2023-05-09T01:36:08.469Z,51.29
2023-05-09T01:37:09.528Z,55.31
2023-05-09T01:38:08.461Z,55.72
2023-05-09T01:39:08.480Z,58.66
2023-05-09T01:40:08.514Z,54.85
2023-05-09T01:41:08.456Z,52.90
2023-05-09T01:42:08.447Z,51.08
2023-05-09T01:43:08.412Z,51.91
2023-05-09T01:44:09.493Z,55.09
2023-05-09T01:45:08.408Z,51.80
2023-05-09T01:46:09.521Z,59.96
2023-05-09T01:47:08.436Z,51.94
2023-05-09T01:48:08.473Z,54.78
2023-05-09T01:49:08.375Z,51.68
2023-05-09T01:50:08.387Z,58.93
2023-05-09T01:51:08.385Z,59.64
2023-05-09T01:52:08.367Z,51.65
2023-05-09T01:53:08.351Z,56.62
2023-05-09T01:54:08.352Z,60.26
2023-05-09T01:55:08.336Z,57.76
2023-05-09T01:56:08.332Z,56.85
2023-05-09T01:57:08.311Z,58.13
2023-05-09T01:58:08.316Z,55.50
2023-05-09T01:59:08.311Z,60.03
2023-05-09T02:00:08.299Z,56.34
2023-05-09T02:01:08.318Z,61.97
2023-05-09T02:02:08.423Z,61.83
2023-05-09T02:03:08.328Z,49.50
2023-05-09T02:04:08.257Z,55.34
2023-05-09T02:05:08.266Z,62.46
2023-05-09T02:06:08.254Z,52.97
2023-05-09T02:07:08.239Z,47.91
2023-05-09T02:08:08.232Z,45.74
2023-05-09T02:09:08.226Z,56.34
2023-05-09T02:10:08.223Z,58.86
2023-05-09T02:11:08.207Z,59.70
2023-05-09T02:12:08.200Z,52.83
2023-05-09T02:13:08.268Z,56.96
2023-05-09T02:14:08.916Z,57.01
2023-05-09T02:15:08.177Z,56.25
2023-05-09T02:16:08.235Z,52.30
2023-05-09T02:17:08.154Z,49.34
2023-05-09T02:18:08.252Z,51.06
2023-05-09T02:19:08.147Z,58.44
2023-05-09T02:20:08.139Z,60.28
2023-05-09T02:21:08.202Z,53.31
2023-05-09T02:22:08.129Z,50.20
2023-05-09T02:23:08.116Z,59.02
2023-05-09T02:24:08.167Z,60.77
2023-05-09T02:25:10.026Z,58.22
2023-05-09T02:26:08.093Z,56.86
2023-05-09T02:27:08.097Z,55.17
2023-05-09T02:28:08.076Z,54.61
2023-05-09T02:29:08.058Z,53.91
2023-05-09T02:30:08.043Z,61.49
2023-05-09T02:31:08.046Z,51.15
2023-05-09T02:32:08.119Z,52.39
2023-05-09T02:33:08.055Z,49.11
2023-05-09T02:34:08.118Z,52.36
2023-05-09T02:35:08.012Z,57.60
2023-05-09T02:36:08.011Z,56.04
2023-05-09T02:37:08.005Z,54.26
2023-05-09T02:38:07.991Z,54.80
2023-05-09T02:39:07.989Z,57.03
2023-05-09T02:40:07.964Z,59.34
2023-05-09T02:41:08.930Z,58.28
2023-05-09T02:42:07.962Z,50.29
2023-05-09T02:43:07.944Z,54.89
2023-05-09T02:44:07.935Z,56.08
2023-05-09T02:45:07.968Z,51.74
2023-05-09T02:46:07.959Z,53.82
2023-05-09T02:47:07.918Z,54.26
2023-05-09T02:48:08.944Z,58.29
2023-05-09T02:49:10.108Z,61.10
2023-05-09T02:50:07.987Z,57.31
2023-05-09T02:51:07.882Z,53.90
2023-05-09T02:52:07.886Z,51.46
2023-05-09T02:53:07.899Z,62.20
2023-05-09T02:54:07.873Z,56.29
2023-05-09T02:55:07.854Z,54.03
2023-05-09T02:56:07.843Z,60.95
2023-05-09T02:57:07.833Z,57.76
2023-05-09T02:58:14.105Z,53.53
2023-05-09T02:59:09.836Z,61.31
2023-05-09T03:00:07.813Z,57.94
2023-05-09T03:01:07.808Z,58.32
2023-05-09T03:02:07.798Z,53.63
2023-05-09T03:03:08.065Z,59.50
2023-05-09T03:04:07.787Z,62.35
2023-05-09T03:05:07.790Z,64.71
2023-05-09T03:06:07.868Z,55.08
2023-05-09T03:07:07.819Z,55.92
2023-05-09T03:08:07.759Z,62.11
2023-05-09T03:09:07.731Z,61.08
2023-05-09T03:10:07.728Z,58.08
2023-05-09T03:11:07.721Z,57.46
2023-05-09T03:12:08.436Z,59.19
2023-05-09T03:13:07.736Z,56.64
2023-05-09T03:14:07.704Z,58.89
2023-05-09T03:15:07.688Z,53.73
2023-05-09T03:16:07.716Z,58.48
2023-05-09T03:17:07.690Z,60.58
2023-05-09T03:18:07.739Z,59.11
2023-05-09T03:19:07.692Z,57.53
2023-05-09T03:20:07.729Z,63.16
2023-05-09T03:21:07.646Z,61.49
2023-05-09T03:22:07.756Z,61.17
2023-05-09T03:23:07.632Z,59.84
2023-05-09T03:24:07.710Z,61.91
2023-05-09T03:25:07.654Z,57.98
2023-05-09T03:26:07.614Z,61.79
2023-05-09T03:27:07.603Z,61.93
2023-05-09T03:28:07.588Z,61.42
2023-05-09T03:29:07.597Z,58.33
2023-05-09T03:30:07.569Z,61.38
2023-05-09T03:31:07.583Z,63.26
2023-05-09T03:32:07.586Z,62.83
2023-05-09T03:33:07.595Z,61.12
2023-05-09T03:34:07.554Z,63.00
2023-05-09T03:35:07.529Z,64.61
2023-05-09T03:36:07.530Z,62.97
2023-05-09T03:37:07.525Z,61.42
2023-05-09T03:38:07.622Z,64.81
2023-05-09T03:39:07.514Z,66.53
2023-05-09T03:40:07.517Z,58.98
2023-05-09T03:41:07.492Z,60.36
2023-05-09T03:42:07.533Z,61.42
2023-05-09T03:43:07.488Z,61.32
2023-05-09T03:44:07.479Z,60.64
2023-05-09T03:45:07.480Z,63.79
2023-05-09T03:46:07.461Z,62.30
2023-05-09T03:47:07.553Z,62.86
2023-05-09T03:48:08.410Z,61.34
2023-05-09T03:49:07.949Z,60.35
2023-05-09T03:50:07.426Z,63.64
2023-05-09T03:51:07.426Z,64.93
2023-05-09T03:52:07.420Z,62.09
2023-05-09T03:53:07.428Z,62.41
2023-05-09T03:54:07.492Z,61.79
2023-05-09T03:55:08.412Z,59.74
2023-05-09T03:56:07.376Z,63.52
2023-05-09T03:57:08.367Z,61.73
2023-05-09T03:58:07.365Z,61.60
2023-05-09T03:59:07.408Z,62.78
2023-05-09T04:00:07.949Z,62.88
2023-05-09T04:01:07.349Z,62.06
2023-05-09T04:02:07.358Z,62.96
2023-05-09T04:03:07.361Z,66.57
2023-05-09T04:04:07.481Z,62.16
2023-05-09T04:05:07.328Z,62.01
2023-05-09T04:06:07.316Z,63.60
2023-05-09T04:07:07.296Z,62.87
2023-05-09T04:08:07.291Z,62.32
2023-05-09T04:09:07.282Z,60.78
2023-05-09T04:10:07.369Z,62.46
2023-05-09T04:11:07.280Z,64.33
2023-05-09T04:12:07.252Z,63.48
2023-05-09T04:13:07.255Z,62.59
2023-05-09T04:14:07.387Z,64.86
2023-05-09T04:15:07.238Z,61.59
2023-05-09T04:16:07.237Z,60.66
2023-05-09T04:17:07.287Z,61.46
2023-05-09T04:18:07.263Z,66.26
2023-05-09T04:19:07.213Z,64.43
2023-05-09T04:20:07.186Z,65.02
2023-05-09T04:21:07.210Z,63.16
2023-05-09T04:22:07.172Z,62.17
2023-05-09T04:23:07.174Z,63.83
2023-05-09T04:24:07.175Z,65.07
2023-05-09T04:25:07.153Z,63.00
2023-05-09T04:26:07.157Z,65.22
2023-05-09T04:27:07.134Z,64.51
2023-05-09T04:28:07.178Z,66.02
2023-05-09T04:29:07.131Z,63.99
2023-05-09T04:30:07.119Z,65.82
2023-05-09T04:31:07.268Z,64.70
2023-05-09T04:32:07.129Z,63.78
2023-05-09T04:33:07.105Z,63.83
2023-05-09T04:34:07.089Z,64.55
2023-05-09T04:35:07.074Z,67.32
2023-05-09T04:36:07.083Z,66.04
2023-05-09T04:37:07.095Z,63.48
2023-05-09T04:38:07.065Z,64.92
2023-05-09T04:39:07.041Z,63.16
2023-05-09T04:40:07.051Z,64.47
2023-05-09T04:41:07.047Z,67.10
2023-05-09T04:42:07.127Z,64.79
2023-05-09T04:43:07.028Z,62.86
2023-05-09T04:44:07.002Z,64.72
2023-05-09T04:45:06.998Z,61.18
2023-05-09T04:46:07.002Z,63.92
2023-05-09T04:47:07.005Z,63.77
2023-05-09T04:48:07.020Z,67.56
2023-05-09T04:49:06.963Z,64.46
2023-05-09T04:50:06.963Z,65.23
2023-05-09T04:51:06.950Z,64.75
2023-05-09T04:52:06.955Z,64.43
2023-05-09T04:53:06.939Z,67.92
2023-05-09T04:54:06.922Z,65.96
2023-05-09T04:55:06.917Z,65.28
2023-05-09T04:56:06.912Z,64.60
2023-05-09T04:57:17.216Z,63.54
2023-05-09T04:58:09.006Z,63.85
2023-05-09T04:59:07.867Z,65.87
2023-05-09T05:00:06.879Z,64.87
2023-05-09T05:01:06.880Z,65.75
2023-05-09T05:02:07.433Z,63.75
2023-05-09T05:03:06.903Z,65.58
2023-05-09T05:04:06.859Z,66.62
2023-05-09T05:05:12.086Z,66.64
2023-05-09T05:06:08.846Z,64.61
2023-05-09T05:07:06.830Z,64.72
2023-05-09T05:08:06.856Z,66.83
2023-05-09T05:09:06.804Z,62.38
2023-05-09T05:10:06.797Z,63.76
2023-05-09T05:11:06.807Z,64.90
2023-05-09T05:12:09.194Z,64.27
2023-05-09T05:13:06.839Z,64.00
2023-05-09T05:14:06.874Z,65.66
2023-05-09T05:15:06.766Z,65.62
2023-05-09T05:16:06.826Z,64.80
2023-05-09T05:17:06.743Z,63.43
2023-05-09T05:18:06.769Z,66.41
2023-05-09T05:19:06.722Z,63.33
2023-05-09T05:20:06.755Z,68.16
2023-05-09T05:21:06.712Z,64.80
2023-05-09T05:22:06.705Z,66.17
2023-05-09T05:23:06.707Z,64.45
2023-05-09T05:24:06.698Z,66.33
2023-05-09T05:25:06.681Z,65.10
2023-05-09T05:26:06.682Z,65.47
2023-05-09T05:27:06.668Z,66.72
2023-05-09T05:28:06.690Z,64.51
2023-05-09T05:29:06.713Z,66.63
2023-05-09T05:30:06.757Z,65.61
2023-05-09T05:31:06.764Z,69.30
2023-05-09T05:32:06.747Z,70.35
2023-05-09T05:33:06.777Z,66.18
2023-05-09T05:34:06.700Z,66.97
2023-05-09T05:35:06.671Z,68.31
2023-05-09T05:36:06.710Z,66.05
2023-05-09T05:37:06.707Z,66.87
2023-05-09T05:38:06.591Z,65.95
2023-05-09T05:39:06.574Z,64.73
2023-05-09T05:40:06.572Z,65.03
2023-05-09T05:41:06.919Z,65.10
2023-05-09T05:42:06.575Z,64.86
2023-05-09T05:43:06.563Z,65.37
2023-05-09T05:44:06.541Z,64.04
2023-05-09T05:45:08.421Z,65.10
2023-05-09T05:46:07.607Z,62.66
2023-05-09T05:47:06.513Z,64.08
2023-05-09T05:48:06.574Z,64.70
2023-05-09T05:49:06.510Z,64.84
2023-05-09T05:50:07.486Z,63.80
2023-05-09T05:51:06.474Z,65.08
2023-05-09T05:52:06.464Z,64.99
2023-05-09T05:53:06.524Z,63.22
2023-05-09T05:54:06.460Z,65.43
2023-05-09T05:55:06.467Z,65.07
2023-05-09T05:56:06.453Z,65.40
2023-05-09T05:59:13.650Z,67.87
2023-05-09T06:00:16.136Z,68.42
2023-05-09T06:01:14.618Z,63.72
2023-05-09T06:02:14.394Z,65.47
2023-05-09T06:03:14.519Z,65.30
2023-05-09T06:04:14.438Z,67.82
2023-05-09T06:05:14.551Z,67.00
2023-05-09T06:06:14.307Z,63.97
2023-05-09T06:07:14.282Z,64.76
2023-05-09T06:08:14.324Z,65.87
2023-05-09T06:09:14.289Z,64.97
2023-05-09T06:10:14.265Z,64.81
2023-05-09T06:11:14.267Z,62.44
2023-05-09T06:12:14.283Z,64.35
2023-05-09T06:13:14.288Z,65.80
2023-05-09T06:14:14.239Z,64.51
2023-05-09T06:15:14.469Z,66.19
2023-05-09T06:16:19.645Z,66.44
2023-05-09T06:17:16.342Z,65.85
2023-05-09T06:18:14.210Z,66.08
2023-05-09T06:19:14.219Z,66.40
2023-05-09T06:20:14.198Z,67.04
2023-05-09T06:21:14.189Z,65.66
2023-05-09T06:22:14.189Z,65.03
2023-05-09T06:23:14.168Z,61.69
2023-05-09T06:24:23.500Z,63.45
2023-05-09T06:25:16.374Z,63.22
2023-05-09T06:26:14.144Z,63.11
2023-05-09T06:27:14.234Z,62.92
2023-05-09T06:28:14.640Z,64.33
2023-05-09T06:29:14.717Z,64.02
2023-05-09T06:30:24.657Z,63.91
2023-05-09T06:31:16.162Z,65.03
2023-05-09T06:32:14.174Z,62.67
2023-05-09T06:33:14.188Z,63.28
2023-05-09T06:34:14.086Z,64.07
2023-05-09T06:35:14.284Z,62.44
2023-05-09T06:36:14.060Z,64.76
2023-05-09T06:37:14.061Z,62.63
2023-05-09T06:38:14.049Z,63.92
2023-05-09T06:39:14.038Z,62.32
2023-05-09T06:40:14.043Z,63.84
2023-05-09T06:41:14.041Z,62.40
2023-05-09T06:42:14.014Z,61.54
2023-05-09T06:43:14.031Z,62.97
2023-05-09T06:44:14.999Z,62.12
2023-05-09T06:45:14.149Z,63.01
2023-05-09T06:46:14.019Z,64.75
2023-05-09T06:47:13.978Z,63.13
2023-05-09T06:48:14.649Z,63.44
2023-05-09T06:49:14.065Z,62.98
2023-05-09T06:50:14.647Z,63.15
2023-05-09T06:51:13.948Z,62.62
2023-05-09T06:52:13.934Z,61.91
2023-05-09T06:53:14.683Z,64.20
2023-05-09T06:54:13.928Z,64.93
2023-05-09T06:55:14.166Z,64.25
2023-05-09T06:56:13.910Z,64.92
2023-05-09T06:57:13.901Z,62.67
2023-05-09T06:58:13.897Z,63.57
2023-05-09T06:59:13.884Z,62.51
2023-05-09T07:00:13.892Z,63.91
2023-05-09T07:01:13.918Z,64.09
2023-05-09T07:02:13.852Z,63.46
2023-05-09T07:03:13.868Z,61.85
2023-05-09T07:04:13.853Z,65.08
2023-05-09T07:05:14.106Z,63.08
2023-05-09T07:06:13.834Z,65.37
2023-05-09T07:07:13.819Z,61.98
2023-05-09T07:08:13.807Z,62.29
2023-05-09T07:09:13.814Z,61.11
2023-05-09T07:10:13.830Z,61.87
2023-05-09T07:11:13.816Z,62.75
2023-05-09T07:12:13.785Z,62.32
2023-05-09T07:13:13.827Z,65.14
2023-05-09T07:14:13.780Z,62.40
2023-05-09T07:15:15.563Z,64.34
2023-05-09T07:16:14.782Z,66.31
2023-05-09T07:17:22.972Z,66.15
2023-05-09T07:18:15.725Z,62.12
2023-05-09T07:19:13.748Z,62.57
2023-05-09T07:20:13.729Z,63.80
2023-05-09T07:21:13.807Z,62.10
2023-05-09T07:22:13.747Z,63.09
2023-05-09T07:23:14.662Z,63.09
2023-05-09T07:24:13.736Z,64.36
2023-05-09T07:25:13.780Z,62.54
2023-05-09T07:26:14.275Z,62.69
2023-05-09T07:27:13.699Z,61.39
2023-05-09T07:28:13.645Z,60.61
2023-05-09T07:29:13.643Z,64.23
2023-05-09T07:30:14.418Z,64.94
2023-05-09T07:31:13.658Z,61.60
2023-05-09T07:32:13.741Z,61.35
2023-05-09T07:33:13.663Z,65.56
2023-05-09T07:34:13.639Z,62.76
2023-05-09T07:35:13.735Z,63.17
2023-05-09T07:36:13.588Z,66.21
2023-05-09T07:37:15.377Z,64.26
2023-05-09T07:38:13.580Z,66.46
2023-05-09T07:39:13.567Z,64.01
2023-05-09T07:40:13.820Z,62.83
2023-05-09T07:41:13.560Z,63.27
2023-05-09T07:42:13.552Z,63.85
2023-05-09T07:43:13.542Z,62.09
2023-05-09T07:44:13.524Z,62.90
2023-05-09T07:45:13.726Z,63.21
2023-05-09T07:46:13.556Z,60.52
2023-05-09T07:47:13.510Z,62.80
2023-05-09T07:48:13.503Z,64.34
2023-05-09T07:49:13.507Z,66.06
2023-05-09T07:50:13.496Z,61.32
2023-05-09T07:51:13.483Z,64.67
2023-05-09T07:52:13.475Z,65.80
2023-05-09T07:53:13.556Z,64.57
2023-05-09T07:54:13.449Z,61.98
2023-05-09T07:55:13.805Z,64.50
2023-05-09T07:56:13.434Z,63.59
2023-05-09T07:57:13.435Z,62.57
2023-05-09T07:58:14.262Z,64.22
2023-05-09T07:59:13.442Z,62.76
2023-05-09T08:00:13.403Z,66.83
2023-05-09T08:01:13.421Z,65.06
2023-05-09T08:02:13.443Z,64.37
2023-05-09T08:03:13.517Z,62.68
2023-05-09T08:04:13.495Z,63.80
2023-05-09T08:05:13.698Z,66.29
2023-05-09T08:06:13.358Z,61.59
2023-05-09T08:07:13.408Z,60.93
2023-05-09T08:08:13.338Z,62.31
2023-05-09T08:09:13.456Z,62.07
2023-05-09T08:10:13.334Z,61.42
2023-05-09T08:11:13.326Z,62.07
2023-05-09T08:12:13.335Z,62.63
2023-05-09T08:13:13.319Z,61.24
2023-05-09T08:14:15.035Z,64.18
2023-05-09T08:15:13.769Z,64.71
2023-05-09T08:16:13.337Z,62.15
2023-05-09T08:17:13.294Z,63.24
2023-05-09T08:18:13.285Z,63.53
2023-05-09T08:19:13.275Z,64.02
2023-05-09T08:20:13.274Z,64.19
2023-05-09T08:21:14.280Z,64.64
2023-05-09T08:22:13.248Z,65.82
2023-05-09T08:23:13.247Z,64.78
2023-05-09T08:24:13.235Z,64.04
2023-05-09T08:25:13.563Z,62.79
2023-05-09T08:26:13.204Z,63.09
2023-05-09T08:27:13.199Z,63.38
2023-05-09T08:28:13.187Z,69.31
2023-05-09T08:29:13.180Z,65.42
2023-05-09T08:30:13.198Z,65.12
2023-05-09T08:31:13.204Z,64.30
2023-05-09T08:32:13.204Z,64.49
2023-05-09T08:33:13.207Z,63.85
2023-05-09T08:34:13.160Z,63.88
2023-05-09T08:35:13.288Z,65.30
2023-05-09T08:36:13.189Z,63.38
2023-05-09T08:37:15.095Z,65.83
2023-05-09T08:38:14.133Z,65.50
2023-05-09T08:39:13.106Z,63.07
2023-05-09T08:40:13.895Z,63.20
2023-05-09T08:41:13.201Z,63.26
2023-05-09T08:42:13.101Z,63.55
2023-05-09T08:43:13.088Z,62.59
2023-05-09T08:44:13.074Z,63.95
2023-05-09T08:45:13.081Z,61.55
2023-05-09T08:46:13.076Z,62.79
2023-05-09T08:47:13.049Z,63.20
2023-05-09T08:48:13.042Z,62.97
2023-05-09T08:49:13.042Z,61.87
2023-05-09T08:50:13.380Z,63.88
2023-05-09T08:51:13.037Z,65.50
2023-05-09T08:52:13.002Z,63.71
2023-05-09T08:53:13.725Z,65.23
2023-05-09T08:54:13.009Z,64.43
2023-05-09T08:55:13.037Z,63.00
2023-05-09T08:56:12.985Z,62.39
2023-05-09T08:57:13.082Z,64.04
2023-05-09T08:58:12.979Z,64.98
2023-05-09T08:59:12.983Z,65.04
2023-05-09T09:00:13.147Z,67.05
2023-05-09T09:01:15.742Z,65.54
2023-05-09T09:02:12.971Z,63.23
2023-05-09T09:05:40.053Z,65.76
2023-05-09T09:06:20.798Z,63.58
2023-05-09T09:07:20.785Z,62.70
2023-05-09T09:08:19.803Z,63.78
2023-05-09T09:09:20.629Z,70.83
2023-05-09T09:10:19.779Z,61.93
2023-05-09T09:11:20.860Z,66.12
2023-05-09T09:12:20.947Z,64.66
2023-05-09T09:13:20.888Z,61.49
2023-05-09T09:14:20.853Z,62.68
2023-05-09T09:15:20.850Z,64.71
2023-05-09T09:16:20.970Z,63.65
2023-05-09T09:17:20.858Z,61.75
2023-05-09T09:18:21.696Z,64.49
2023-05-09T09:19:20.809Z,64.09
2023-05-09T09:20:20.833Z,66.19
2023-05-09T09:21:20.939Z,64.72
2023-05-09T09:22:20.814Z,64.09
2023-05-09T09:23:21.625Z,64.01
2023-05-09T09:26:27.476Z,64.56
2023-05-09T09:27:27.571Z,66.29
2023-05-09T09:28:27.457Z,66.15
2023-05-09T09:29:27.445Z,64.16
2023-05-09T09:30:27.432Z,67.06
2023-05-09T09:31:27.450Z,63.57
2023-05-09T09:32:27.477Z,64.43
2023-05-09T09:33:27.430Z,62.58
2023-05-09T09:34:27.432Z,61.57
2023-05-09T09:35:27.397Z,64.51
2023-05-09T09:36:27.392Z,65.35
2023-05-09T09:37:28.497Z,62.83
2023-05-09T09:38:29.469Z,63.29
2023-05-09T09:39:29.022Z,65.84
2023-05-09T09:40:28.473Z,60.85
2023-05-09T09:41:28.456Z,62.74
2023-05-09T09:42:28.455Z,63.52
2023-05-09T09:43:30.396Z,64.17
2023-05-09T09:44:28.496Z,62.71
2023-05-09T09:45:28.425Z,61.79
2023-05-09T09:46:28.484Z,63.00
2023-05-09T09:47:28.456Z,63.51
2023-05-09T09:48:28.750Z,61.20
2023-05-09T09:49:28.405Z,64.01
2023-05-09T09:50:28.384Z,63.75
2023-05-09T09:51:28.386Z,65.90
2023-05-09T09:52:30.210Z,64.73
2023-05-09T09:53:28.373Z,65.84
2023-05-09T09:54:28.401Z,65.98
2023-05-09T09:55:28.386Z,66.25
2023-05-09T09:56:28.354Z,64.58
2023-05-09T09:57:29.242Z,62.23
2023-05-09T09:58:28.318Z,63.29
2023-05-09T09:59:29.430Z,63.23
2023-05-09T10:00:30.256Z,66.34
2023-05-09T10:01:30.205Z,60.02
2023-05-09T10:02:28.318Z,65.01
2023-05-09T10:03:28.310Z,65.45
2023-05-09T10:04:28.272Z,65.65
2023-05-09T10:05:28.257Z,63.86
2023-05-09T10:06:29.144Z,64.71
2023-05-09T10:07:28.287Z,65.26
2023-05-09T10:08:31.156Z,67.26
2023-05-09T10:09:29.255Z,65.03
2023-05-09T10:10:30.317Z,61.32
2023-05-09T10:11:28.223Z,63.30
2023-05-09T10:12:28.230Z,63.94
2023-05-09T10:13:28.287Z,63.18
2023-05-09T10:14:29.209Z,62.54
2023-05-09T10:15:30.118Z,62.53
2023-05-09T10:16:42.605Z,62.62
2023-05-09T10:17:30.285Z,62.53
2023-05-09T10:18:29.180Z,64.70
2023-05-09T10:19:28.158Z,66.39
2023-05-09T10:20:28.663Z,66.08
2023-05-09T10:21:29.161Z,67.00
2023-05-09T10:22:28.138Z,67.67
2023-05-09T10:23:29.639Z,67.26
2023-05-09T10:24:28.149Z,66.45
2023-05-09T10:25:28.165Z,66.75
2023-05-09T10:26:28.146Z,66.61
2023-05-09T10:27:28.096Z,69.09
2023-05-09T10:28:28.094Z,67.35
2023-05-09T10:29:28.075Z,66.08
2023-05-09T10:30:30.330Z,67.84
2023-05-09T10:31:28.291Z,65.66
2023-05-09T10:32:28.082Z,64.33
2023-05-09T10:33:28.064Z,63.29
2023-05-09T10:34:28.045Z,62.74
2023-05-09T10:35:28.038Z,66.14
2023-05-09T10:36:28.022Z,64.84
2023-05-09T10:37:28.032Z,65.97
2023-05-09T10:38:28.009Z,66.91
2023-05-09T10:39:28.039Z,63.23
2023-05-09T10:40:28.019Z,63.83
2023-05-09T10:41:27.989Z,63.65
2023-05-09T10:42:27.974Z,64.29
2023-05-09T10:43:27.967Z,64.93
2023-05-09T10:44:27.974Z,63.95
2023-05-09T10:45:27.968Z,63.85
2023-05-09T10:46:28.015Z,62.98
2023-05-09T10:47:28.101Z,63.85
2023-05-09T10:48:27.938Z,64.81
2023-05-09T10:49:27.932Z,64.54
2023-05-09T10:50:28.652Z,62.90
2023-05-09T10:51:27.940Z,63.84
2023-05-09T10:52:29.737Z,65.18
2023-05-09T10:53:27.898Z,65.82
2023-05-09T10:54:29.304Z,65.22
2023-05-09T10:55:27.937Z,63.66
2023-05-09T10:56:27.864Z,67.46
2023-05-09T10:57:27.865Z,68.83
2023-05-09T10:58:27.859Z,67.23
2023-05-09T10:59:28.676Z,65.39
2023-05-09T11:00:27.829Z,66.96
2023-05-09T11:01:27.828Z,66.77
2023-05-09T11:02:27.850Z,66.17
2023-05-09T11:03:29.245Z,67.01
2023-05-09T11:04:29.659Z,66.10
2023-05-09T11:07:36.964Z,66.89
2023-05-09T11:08:36.944Z,66.30
2023-05-09T11:09:37.452Z,63.89
2023-05-09T11:10:36.922Z,64.92
2023-05-09T11:11:36.916Z,64.19
2023-05-09T11:12:37.470Z,66.29
2023-05-09T11:13:36.928Z,63.75
2023-05-09T11:14:38.477Z,64.01
2023-05-09T11:15:36.904Z,63.74
2023-05-09T11:16:36.986Z,66.73
2023-05-09T11:17:36.919Z,64.84
2023-05-09T11:18:36.976Z,66.89
2023-05-09T11:19:36.866Z,67.34
2023-05-09T11:20:36.880Z,66.29
2023-05-09T11:21:36.838Z,64.99
2023-05-09T11:22:37.867Z,63.78
2023-05-09T11:23:36.838Z,65.33
2023-05-09T11:24:36.823Z,66.67
2023-05-09T11:25:36.800Z,62.53
2023-05-09T11:26:36.805Z,65.98
2023-05-09T11:27:37.914Z,62.56
2023-05-09T11:28:37.905Z,62.82
2023-05-09T11:29:37.882Z,66.09
2023-05-09T11:30:37.890Z,66.83
2023-05-09T11:31:37.917Z,63.48
2023-05-09T11:32:37.903Z,65.79
2023-05-09T11:33:41.558Z,64.29
2023-05-09T11:34:37.839Z,64.59
2023-05-09T11:35:38.485Z,64.90
2023-05-09T11:36:39.560Z,62.34
2023-05-09T11:37:37.832Z,62.25
2023-05-09T11:38:38.475Z,63.57
2023-05-09T11:39:37.809Z,59.58
2023-05-09T11:40:40.576Z,63.16
2023-05-09T11:41:39.469Z,63.12
2023-05-09T11:42:38.579Z,64.06
2023-05-09T11:43:37.764Z,62.17
2023-05-09T11:44:37.772Z,63.64
2023-05-09T11:45:38.065Z,62.94
2023-05-09T11:46:56.423Z,62.25
2023-05-09T11:47:37.823Z,63.28
2023-05-09T11:48:38.483Z,65.38
2023-05-09T11:49:37.819Z,62.50
2023-05-09T11:50:37.746Z,63.46
2023-05-09T11:51:37.736Z,63.44
2023-05-09T11:52:41.490Z,63.39
2023-05-09T11:53:40.483Z,64.99
2023-05-09T11:54:38.063Z,63.89
2023-05-09T11:55:37.711Z,61.55
2023-05-09T11:56:39.589Z,64.94
2023-05-09T11:57:37.678Z,64.15
2023-05-09T11:58:42.488Z,65.48
2023-05-09T11:59:38.579Z,62.99
2023-05-09T12:00:38.478Z,66.48
2023-05-09T12:01:37.662Z,65.21
2023-05-09T12:02:37.758Z,68.19
2023-05-09T12:03:39.638Z,65.70
2023-05-09T12:04:37.643Z,68.83
2023-05-09T12:05:37.724Z,65.24
2023-05-09T12:06:37.609Z,64.03
2023-05-09T12:07:37.602Z,64.93
2023-05-09T12:08:37.595Z,63.60
2023-05-09T12:09:37.597Z,61.39
2023-05-09T12:10:37.617Z,62.86
2023-05-09T12:11:38.171Z,63.31
2023-05-09T12:12:37.562Z,63.73
2023-05-09T12:13:37.568Z,63.09
2023-05-09T12:14:37.540Z,62.68
2023-05-09T12:15:37.804Z,63.32
2023-05-09T12:16:37.544Z,63.89
2023-05-09T12:17:38.501Z,63.09
2023-05-09T12:18:38.518Z,64.40
2023-05-09T12:19:37.503Z,64.59
2023-05-09T12:20:37.530Z,62.69
2023-05-09T12:21:37.602Z,64.55
2023-05-09T12:22:37.548Z,63.42
2023-05-09T12:23:37.475Z,63.90
2023-05-09T12:24:37.991Z,63.35
2023-05-09T12:25:37.492Z,64.22
2023-05-09T12:26:37.463Z,76.18
2023-05-09T12:27:37.491Z,65.80
2023-05-09T12:28:37.451Z,62.81
2023-05-09T12:29:37.433Z,62.01
2023-05-09T12:30:37.433Z,65.85
2023-05-09T12:31:37.446Z,64.29
2023-05-09T12:32:37.458Z,62.71
2023-05-09T12:33:37.407Z,63.92
2023-05-09T12:34:38.992Z,63.96
2023-05-09T12:35:37.391Z,65.51
2023-05-09T12:36:37.369Z,61.82
2023-05-09T12:37:37.399Z,63.23
2023-05-09T12:40:44.208Z,63.43
2023-05-09T12:41:57.469Z,64.56
2023-05-09T12:42:47.315Z,62.47
2023-05-09T12:43:45.266Z,61.58
2023-05-09T12:44:45.266Z,63.26
2023-05-09T12:45:45.248Z,66.97
2023-05-09T12:46:45.292Z,64.88
2023-05-09T12:47:45.304Z,63.22
2023-05-09T12:48:45.222Z,63.65
2023-05-09T12:49:45.229Z,64.02
2023-05-09T12:50:45.277Z,64.31
2023-05-09T12:51:45.241Z,62.75
2023-05-09T12:53:01.468Z,63.99
2023-05-09T12:53:47.180Z,62.37
2023-05-09T12:54:46.178Z,65.44
2023-05-09T12:55:45.171Z,64.65
2023-05-09T12:56:46.227Z,67.24
2023-05-09T12:57:45.163Z,64.90
2023-05-09T12:58:45.156Z,64.39
2023-05-09T12:59:45.158Z,64.45
2023-05-09T13:00:45.789Z,67.81
2023-05-09T13:01:45.140Z,66.41
2023-05-09T13:02:45.240Z,64.02
2023-05-09T13:03:45.113Z,65.93
2023-05-09T13:04:45.143Z,65.52